Time;durP1;ratioP1;P1;durP2;ratioP2;P2;SDS_P1;SDS_P2;PMS_P1;PMS_P2;Temp;Humidity;BMP_temperature;BMP_pressure;BME280_temperature;BME280_humidity;BME280_pressure;Samples;Min_cycle;Max_cycle;Signal;HPM_P1;HPM_P2
2022/10/02 00:01:40;;;;;;;3.23;2.00;;;14.70;99.90;;;;;;5074507;28;20415;-70
2022/10/02 00:04:12;;;;;;;4.40;1.90;;;14.70;99.90;;;;;;5074215;28;20739;-71
2022/10/02 00:06:46;;;;;;;6.27;2.27;;;14.90;99.90;;;;;;5054212;28;20955;-70
2022/10/02 00:09:21;;;;;;;3.80;1.87;;;15.00;99.90;;;;;;5054561;28;20515;-71
2022/10/02 00:11:50;;;;;;;9.50;2.40;;;15.00;99.90;;;;;;5054323;28;20861;-70
2022/10/02 00:14:17;;;;;;;5.20;2.30;;;15.00;99.90;;;;;;5054363;28;20464;-69
2022/10/02 00:16:47;;;;;;;8.13;2.30;;;15.10;99.90;;;;;;5061912;28;20503;-68
2022/10/02 00:19:16;;;;;;;4.57;1.77;;;15.10;99.90;;;;;;5073145;28;20793;-69
2022/10/02 00:21:54;;;;;;;3.50;1.57;;;15.10;99.90;;;;;;5073865;28;20934;-69
2022/10/02 00:24:30;;;;;;;4.83;1.83;;;15.20;99.90;;;;;;5074318;28;20478;-69
2022/10/02 00:27:04;;;;;;;8.93;2.70;;;15.30;99.90;;;;;;5074610;28;20395;-69
2022/10/02 00:29:40;;;;;;;7.20;1.90;;;15.10;99.90;;;;;;5074272;28;20444;-69
2022/10/02 00:32:36;;;;;;;5.57;2.07;;;15.10;99.90;;;;;;5074384;28;20763;-68
2022/10/02 00:35:35;;;;;;;4.43;1.90;;;15.10;99.90;;;;;;5065011;28;20419;-69
2022/10/02 00:38:20;;;;;;;4.83;1.80;;;15.10;99.90;;;;;;5053847;28;20421;-69
2022/10/02 00:41:01;;;;;;;8.20;1.70;;;15.10;99.90;;;;;;5053752;28;20404;-70
2022/10/02 00:43:44;;;;;;;4.00;1.50;;;15.20;99.90;;;;;;5054007;28;20491;-70
2022/10/02 00:46:50;;;;;;;2.47;1.87;;;15.00;99.90;;;;;;5054421;28;20400;-70
2022/10/02 00:49:54;;;;;;;5.30;2.27;;;15.10;99.90;;;;;;5053961;28;20437;-71
2022/10/02 00:52:43;;;;;;;4.80;2.03;;;15.10;99.90;;;;;;5032630;28;20446;-70
2022/10/02 00:55:38;;;;;;;4.13;2.10;;;15.00;99.90;;;;;;5054081;28;20494;-71
2022/10/02 00:58:16;;;;;;;7.60;2.57;;;15.00;99.90;;;;;;5046725;28;20580;-71
2022/10/02 01:00:49;;;;;;;9.83;3.30;;;14.90;99.90;;;;;;5053669;28;20474;-71
2022/10/02 01:03:22;;;;;;;10.27;3.77;;;14.80;99.90;;;;;;5053863;28;20385;-71
2022/10/02 01:05:48;;;;;;;7.53;2.43;;;14.90;99.90;;;;;;5053116;28;20778;-69
2022/10/02 01:08:15;;;;;;;5.97;2.20;;;15.00;99.90;;;;;;5053385;28;20422;-70
2022/10/02 01:10:41;;;;;;;5.83;2.20;;;15.00;99.90;;;;;;5053406;28;20479;-70
2022/10/02 01:13:07;;;;;;;7.30;2.40;;;14.90;99.90;;;;;;5053866;28;20434;-70
2022/10/02 01:15:37;;;;;;;4.80;2.67;;;14.90;99.90;;;;;;5053916;28;20450;-70
2022/10/02 01:18:05;;;;;;;5.67;2.63;;;14.80;99.90;;;;;;5053105;28;20421;-70
2022/10/02 01:20:41;;;;;;;5.97;2.57;;;14.80;99.90;;;;;;5052773;28;20410;-70
2022/10/02 01:23:21;;;;;;;5.63;2.43;;;14.80;99.90;;;;;;5053284;28;20393;-70
2022/10/02 01:25:46;;;;;;;3.27;1.70;;;14.90;99.90;;;;;;5052982;28;20384;-71
2022/10/02 01:28:12;;;;;;;6.13;2.17;;;14.90;99.90;;;;;;5052899;28;20424;-71
2022/10/02 01:30:41;;;;;;;3.80;1.77;;;14.90;99.90;;;;;;5052886;28;20202;-70
2022/10/02 01:33:09;;;;;;;6.67;2.40;;;14.90;99.90;;;;;;5053160;28;20172;-69
2022/10/02 01:35:37;;;;;;;3.50;2.10;;;15.00;99.90;;;;;;5063257;28;20410;-70
2022/10/02 01:38:13;;;;;;;6.53;1.90;;;15.00;99.90;;;;;;5073529;28;20480;-70
2022/10/02 01:40:39;;;;;;;3.80;1.97;;;15.00;99.90;;;;;;5073336;28;20395;-70
2022/10/02 01:43:14;;;;;;;4.07;2.30;;;15.00;99.90;;;;;;5072876;28;20404;-70
2022/10/02 01:45:44;;;;;;;6.63;2.20;;;15.10;99.90;;;;;;5073265;28;20854;-70
2022/10/02 01:48:28;;;;;;;4.73;1.67;;;15.20;99.90;;;;;;5073150;28;20425;-70
2022/10/02 01:51:32;;;;;;;3.23;1.63;;;14.90;99.90;;;;;;5072228;28;20463;-70
2022/10/02 01:54:19;;;;;;;5.97;1.90;;;15.10;99.90;;;;;;5070094;28;20419;-69
2022/10/02 01:57:09;;;;;;;5.20;1.80;;;15.00;99.90;;;;;;5073188;28;20384;-68
2022/10/02 01:59:43;;;;;;;2.70;1.63;;;15.20;99.90;;;;;;5073406;28;20476;-71
2022/10/02 02:02:29;;;;;;;5.50;1.90;;;15.20;99.90;;;;;;5073887;28;20475;-70
2022/10/02 02:05:06;;;;;;;3.80;1.70;;;15.30;99.90;;;;;;5073806;28;20777;-70
2022/10/02 02:07:43;;;;;;;2.80;2.07;;;15.30;99.90;;;;;;5071641;28;20413;-70
2022/10/02 02:10:25;;;;;;;2.40;1.33;;;15.30;99.90;;;;;;5073390;28;20443;-70
2022/10/02 02:13:08;;;;;;;5.17;1.87;;;15.30;99.90;;;;;;5073741;28;20398;-70
2022/10/02 02:15:38;;;;;;;4.40;1.83;;;15.50;99.90;;;;;;5073737;28;20374;-70
2022/10/02 02:18:29;;;;;;;2.70;1.53;;;15.50;99.90;;;;;;5073510;28;20514;-70
2022/10/02 02:21:00;;;;;;;4.60;1.70;;;15.40;99.90;;;;;;5078919;28;20394;-70
2022/10/02 02:23:31;;;;;;;5.43;1.90;;;15.50;99.90;;;;;;5085143;28;20385;-70
2022/10/02 02:26:02;;;;;;;5.63;1.93;;;15.60;99.90;;;;;;5085841;28;20613;-70
2022/10/02 02:28:30;;;;;;;4.23;1.83;;;15.60;99.90;;;;;;5084173;28;20423;-70
2022/10/02 02:30:59;;;;;;;4.90;1.50;;;15.60;99.90;;;;;;5083258;28;20528;-70
2022/10/02 02:33:38;;;;;;;8.53;2.10;;;15.60;99.90;;;;;;5083925;28;20427;-70
2022/10/02 02:36:12;;;;;;;3.93;1.57;;;15.50;99.90;;;;;;5079666;28;20423;-71
2022/10/02 02:39:06;;;;;;;4.23;1.93;;;15.30;99.90;;;;;;5082999;28;20431;-70
2022/10/02 02:41:39;;;;;;;4.93;1.70;;;15.30;99.90;;;;;;5081643;28;20420;-70
2022/10/02 02:44:11;;;;;;;4.10;1.50;;;15.30;99.90;;;;;;5084457;28;20932;-70
2022/10/02 02:49:30;;;;;;;4.97;2.30;;;15.20;99.90;;;;;;5076169;28;20412;-70
2022/10/02 02:52:00;;;;;;;4.10;1.60;;;15.30;99.90;;;;;;5075711;28;20836;-70
2022/10/02 02:54:33;;;;;;;3.50;1.80;;;15.40;99.90;;;;;;5076129;28;20451;-70
2022/10/02 02:57:01;;;;;;;5.50;2.30;;;15.50;99.90;;;;;;5075762;28;20879;-70
2022/10/02 02:59:30;;;;;;;4.27;1.83;;;15.50;99.90;;;;;;5075977;28;20904;-70
2022/10/02 03:01:56;;;;;;;5.60;1.90;;;15.60;99.90;;;;;;5076110;28;20391;-70
2022/10/02 03:04:21;;;;;;;4.93;1.77;;;15.60;99.90;;;;;;5075941;28;20402;-70
2022/10/02 03:06:53;;;;;;;4.80;1.60;;;15.60;99.90;;;;;;5074989;28;20635;-71
2022/10/02 03:09:21;;;;;;;6.43;2.53;;;15.60;99.90;;;;;;5075543;28;20228;-71
2022/10/02 03:12:32;;;;;;;6.30;2.90;;;15.60;99.90;;;;;;5075585;28;20443;-69
2022/10/02 03:15:04;;;;;;;7.23;2.87;;;15.60;99.90;;;;;;5013605;28;20455;-69
2022/10/02 03:17:56;;;;;;;5.67;2.77;;;15.60;99.90;;;;;;5013597;28;20438;-70
2022/10/02 03:20:40;;;;;;;3.63;2.20;;;15.70;99.90;;;;;;5050337;28;20414;-69
2022/10/02 03:23:21;;;;;;;6.77;3.00;;;15.60;99.90;;;;;;5075377;28;20380;-70
2022/10/02 03:26:03;;;;;;;4.67;2.47;;;15.50;99.90;;;;;;5075295;28;20400;-69
2022/10/02 03:28:41;;;;;;;6.10;2.70;;;15.50;99.90;;;;;;5075391;28;20781;-70
2022/10/02 03:31:08;;;;;;;5.63;3.23;;;15.50;99.90;;;;;;5073831;28;20883;-69
2022/10/02 03:33:36;;;;;;;4.53;2.23;;;15.50;99.90;;;;;;5074974;28;20433;-70
2022/10/02 03:36:02;;;;;;;10.60;3.13;;;15.50;99.90;;;;;;5072530;28;20419;-70
2022/10/02 03:38:28;;;;;;;6.57;3.80;;;15.50;99.90;;;;;;5075149;28;20786;-70
2022/10/02 03:40:57;;;;;;;3.17;2.60;;;15.50;99.90;;;;;;5075296;28;20428;-70
2022/10/02 03:43:26;;;;;;;5.90;2.97;;;15.50;99.90;;;;;;5074758;28;20989;-70
2022/10/02 03:45:51;;;;;;;6.73;2.87;;;15.50;99.90;;;;;;5074881;28;20398;-70
2022/10/02 03:48:17;;;;;;;8.10;2.57;;;15.50;99.90;;;;;;5074695;28;21053;-70
2022/10/02 03:50:43;;;;;;;5.83;2.87;;;15.40;99.90;;;;;;5074174;28;20206;-70
2022/10/02 03:53:24;;;;;;;4.57;2.40;;;15.30;99.90;;;;;;5074445;28;20160;-72
2022/10/02 03:56:08;;;;;;;9.90;3.10;;;15.40;99.90;;;;;;5074584;28;20434;-70
2022/10/02 03:58:38;;;;;;;3.33;1.73;;;15.30;99.90;;;;;;5074841;28;20783;-70
2022/10/02 04:01:10;;;;;;;6.20;2.23;;;15.30;99.90;;;;;;5074663;28;20489;-71
2022/10/02 04:03:44;;;;;;;3.67;2.10;;;15.30;99.90;;;;;;5073963;28;20433;-70
2022/10/02 04:06:25;;;;;;;3.67;1.50;;;15.30;99.90;;;;;;5074004;28;20774;-71
2022/10/02 04:08:57;;;;;;;6.53;1.90;;;15.30;99.90;;;;;;5074416;28;20456;-70
2022/10/02 04:11:45;;;;;;;5.80;2.30;;;15.30;99.90;;;;;;5074362;28;20440;-70
2022/10/02 04:14:26;;;;;;;3.37;1.97;;;15.30;99.90;;;;;;5074488;28;20389;-70
2022/10/02 04:17:03;;;;;;;6.77;2.70;;;15.30;99.90;;;;;;5074557;28;20433;-70
2022/10/02 04:19:42;;;;;;;4.93;1.90;;;15.30;99.90;;;;;;5074649;28;20883;-70
2022/10/02 04:22:21;;;;;;;6.70;2.00;;;15.30;99.90;;;;;;5073957;28;20414;-70
2022/10/02 04:24:57;;;;;;;3.90;2.20;;;15.30;99.90;;;;;;5074378;28;20804;-70
2022/10/02 04:27:41;;;;;;;8.00;2.50;;;15.30;99.90;;;;;;5073995;28;20503;-70
2022/10/02 04:30:12;;;;;;;3.97;2.00;;;15.30;99.90;;;;;;5073941;28;20452;-70
2022/10/02 04:32:38;;;;;;;3.93;1.87;;;15.20;99.90;;;;;;5073914;28;20437;-70
2022/10/02 04:35:15;;;;;;;7.40;2.13;;;15.10;99.90;;;;;;5072842;28;20433;-71
2022/10/02 04:37:41;;;;;;;6.83;2.10;;;14.80;99.90;;;;;;5073521;28;20193;-70
2022/10/02 04:40:28;;;;;;;7.67;2.33;;;14.80;99.90;;;;;;5074185;28;20416;-70
2022/10/02 04:43:05;;;;;;;3.90;1.83;;;14.90;99.90;;;;;;5073408;28;20177;-70
2022/10/02 04:45:52;;;;;;;3.77;1.70;;;15.20;99.90;;;;;;5073685;28;20442;-70
2022/10/02 04:48:38;;;;;;;2.73;1.63;;;15.30;99.90;;;;;;5074165;28;20435;-70
2022/10/02 04:51:13;;;;;;;4.03;2.30;;;15.40;99.90;;;;;;5072977;28;20998;-71
2022/10/02 04:54:02;;;;;;;5.43;1.80;;;15.30;99.90;;;;;;5073804;28;20851;-70
2022/10/02 04:57:14;;;;;;;2.70;1.63;;;15.30;99.90;;;;;;5073857;28;20399;-70
2022/10/02 05:00:07;;;;;;;9.60;3.37;;;15.40;99.90;;;;;;5073557;28;20434;-70
2022/10/02 05:02:54;;;;;;;7.43;3.60;;;15.30;99.90;;;;;;5073505;28;20399;-70
2022/10/02 05:05:31;;;;;;;9.67;5.57;;;15.20;99.90;;;;;;5072545;28;20453;-72
2022/10/02 05:08:15;;;;;;;8.40;6.00;;;15.20;99.90;;;;;;5073436;28;20420;-71
2022/10/02 05:11:01;;;;;;;9.07;5.80;;;15.10;99.90;;;;;;5072164;28;20458;-71
2022/10/02 05:13:42;;;;;;;7.93;4.77;;;15.10;99.90;;;;;;5042312;28;20411;-70
2022/10/02 05:16:33;;;;;;;6.83;4.67;;;15.10;99.90;;;;;;5073685;28;20401;-69
2022/10/02 05:19:16;;;;;;;8.27;2.97;;;15.00;99.90;;;;;;5073472;28;20849;-70
2022/10/02 05:22:02;;;;;;;7.20;4.03;;;14.90;99.90;;;;;;5073446;28;20800;-71
2022/10/02 05:24:51;;;;;;;8.40;4.10;;;15.00;99.90;;;;;;5073243;28;20484;-69
2022/10/02 05:27:48;;;;;;;4.30;2.83;;;15.00;99.90;;;;;;5071088;28;20399;-70
2022/10/02 05:30:17;;;;;;;6.90;3.00;;;15.00;99.90;;;;;;5061574;28;20465;-69
2022/10/02 05:33:07;;;;;;;6.33;3.00;;;15.00;99.90;;;;;;5053033;28;20415;-69
2022/10/02 05:35:49;;;;;;;5.63;2.37;;;15.00;99.90;;;;;;5058498;28;20516;-70
2022/10/02 05:38:30;;;;;;;4.73;2.93;;;15.00;99.90;;;;;;5073296;28;20869;-69
2022/10/02 05:41:03;;;;;;;5.57;2.60;;;15.10;99.90;;;;;;5073055;28;20407;-69
2022/10/02 05:43:51;;;;;;;6.70;2.67;;;15.00;99.90;;;;;;5073133;28;20484;-69
2022/10/02 05:46:31;;;;;;;6.13;2.70;;;15.00;99.90;;;;;;5073007;28;20397;-69
2022/10/02 05:48:59;;;;;;;4.80;2.43;;;15.00;99.90;;;;;;5072955;28;20782;-69
2022/10/02 05:51:42;;;;;;;3.17;2.77;;;15.00;99.90;;;;;;5072582;28;20500;-70
2022/10/02 05:54:38;;;;;;;6.40;2.70;;;15.00;99.90;;;;;;5073357;28;20478;-71
2022/10/02 05:57:13;;;;;;;3.73;2.23;;;15.00;99.90;;;;;;5073296;28;20448;-69
2022/10/02 06:00:04;;;;;;;3.23;2.50;;;15.10;99.90;;;;;;5073192;28;20465;-70
2022/10/02 06:02:56;;;;;;;8.03;3.37;;;15.10;99.90;;;;;;5073322;28;20475;-70
2022/10/02 06:05:34;;;;;;;5.10;3.13;;;15.20;99.90;;;;;;5072983;28;20900;-69
2022/10/02 06:08:02;;;;;;;3.30;2.10;;;15.20;99.90;;;;;;5073055;28;20423;-70
2022/10/02 06:10:34;;;;;;;4.70;2.87;;;15.20;99.90;;;;;;5072355;28;20544;-70
2022/10/02 06:13:07;;;;;;;5.10;3.10;;;15.20;99.90;;;;;;5072683;28;20876;-71
2022/10/02 06:16:06;;;;;;;5.63;2.80;;;15.20;99.90;;;;;;5072637;28;20487;-70
2022/10/02 06:18:35;;;;;;;6.23;3.33;;;15.20;99.90;;;;;;5055974;28;20448;-70
2022/10/02 06:21:07;;;;;;;4.97;3.10;;;15.10;99.90;;;;;;5075824;28;20411;-70
2022/10/02 06:23:49;;;;;;;3.33;2.17;;;15.20;99.90;;;;;;5076746;28;20394;-70
2022/10/02 06:26:27;;;;;;;4.17;2.63;;;15.10;99.90;;;;;;5076523;28;20398;-70
2022/10/02 06:29:06;;;;;;;5.93;2.40;;;15.20;99.90;;;;;;5076439;28;20424;-71
2022/10/02 06:31:59;;;;;;;3.83;2.23;;;15.30;99.90;;;;;;5076238;28;20445;-71
2022/10/02 06:34:25;;;;;;;8.50;2.57;;;15.30;99.90;;;;;;5076365;28;20406;-71
2022/10/02 06:37:10;;;;;;;6.23;2.77;;;15.30;99.90;;;;;;5075499;28;20414;-70
2022/10/02 06:39:44;;;;;;;7.13;2.27;;;15.30;99.90;;;;;;5076220;28;20384;-70
2022/10/02 06:42:48;;;;;;;4.50;2.47;;;15.20;99.90;;;;;;5076197;28;20373;-70
2022/10/02 06:45:51;;;;;;;7.03;2.43;;;15.20;99.90;;;;;;5076982;28;20387;-71
2022/10/02 06:48:40;;;;;;;4.87;1.97;;;15.30;99.90;;;;;;5075931;28;20421;-70
2022/10/02 06:51:32;;;;;;;4.63;2.37;;;15.40;99.90;;;;;;5075422;28;20922;-70
2022/10/02 06:54:07;;;;;;;3.70;1.90;;;15.50;99.90;;;;;;5076433;28;20389;-70
2022/10/02 06:57:10;;;;;;;4.70;2.00;;;15.60;99.90;;;;;;5076327;28;20397;-71
2022/10/02 07:00:10;;;;;;;5.20;2.30;;;15.60;99.90;;;;;;5076065;28;20901;-71
2022/10/02 07:02:55;;;;;;;8.27;3.00;;;15.30;99.90;;;;;;5075826;28;20410;-70
2022/10/02 07:05:29;;;;;;;7.00;3.87;;;15.10;99.90;;;;;;5066437;28;20954;-70
2022/10/02 07:08:15;;;;;;;4.83;2.93;;;15.20;99.90;;;;;;5066194;28;20427;-70
2022/10/02 07:10:59;;;;;;;7.50;3.60;;;15.40;99.90;;;;;;5066606;28;20460;-70
2022/10/02 07:13:39;;;;;;;7.87;3.50;;;15.50;99.90;;;;;;5066464;28;20474;-72
2022/10/02 07:16:39;;;;;;;6.93;3.13;;;15.50;99.90;;;;;;5066436;28;20408;-72
2022/10/02 07:19:32;;;;;;;5.20;2.50;;;15.50;99.90;;;;;;5066371;28;20439;-71
2022/10/02 07:22:22;;;;;;;2.80;2.50;;;15.60;99.90;;;;;;5065712;28;20417;-70
2022/10/02 07:25:01;;;;;;;15.17;9.47;;;15.60;99.90;;;;;;5066089;28;20405;-71
2022/10/02 07:28:04;;;;;;;10.20;5.37;;;15.50;99.90;;;;;;5065885;28;21271;-70
2022/10/02 07:30:45;;;;;;;8.10;5.27;;;15.40;99.90;;;;;;5044036;28;20462;-70
2022/10/02 07:33:24;;;;;;;7.60;4.87;;;15.50;99.90;;;;;;5075751;28;20478;-69
2022/10/02 07:36:24;;;;;;;6.23;4.20;;;15.50;99.90;;;;;;5074220;28;20442;-69
2022/10/02 07:39:00;;;;;;;5.90;4.40;;;15.50;99.90;;;;;;5061884;28;20521;-70
2022/10/02 07:42:08;;;;;;;8.33;5.73;;;15.60;99.90;;;;;;5075553;28;20422;-70
2022/10/02 07:45:12;;;;;;;6.53;5.00;;;15.60;99.90;;;;;;5075220;28;20391;-70
2022/10/02 07:47:49;;;;;;;5.37;4.27;;;15.70;99.90;;;;;;5075114;28;20420;-70
2022/10/02 07:50:26;;;;;;;6.37;4.70;;;15.50;99.90;;;;;;5075125;28;20455;-70
2022/10/02 07:53:23;;;;;;;10.60;4.40;;;15.60;99.90;;;;;;5074640;28;20389;-71
2022/10/02 07:55:52;;;;;;;8.53;3.70;;;15.60;99.90;;;;;;5075179;28;20392;-70
2022/10/02 07:58:30;;;;;;;6.07;4.03;;;15.80;99.90;;;;;;5073573;28;20470;-70
2022/10/02 08:01:01;;;;;;;7.10;3.20;;;15.80;99.90;;;;;;5074958;28;20410;-69
2022/10/02 08:03:48;;;;;;;5.77;3.70;;;15.60;99.90;;;;;;5074620;28;20406;-70
2022/10/02 08:06:16;;;;;;;5.90;3.00;;;15.70;99.90;;;;;;5072829;28;20420;-70
2022/10/02 08:09:00;;;;;;;3.70;2.60;;;15.80;99.90;;;;;;5074369;28;20419;-70
2022/10/02 08:11:36;;;;;;;3.63;3.23;;;15.80;99.90;;;;;;5073499;28;20451;-69
2022/10/02 08:14:02;;;;;;;5.80;3.10;;;15.90;99.90;;;;;;5074958;28;20398;-69
2022/10/02 08:16:35;;;;;;;5.83;3.93;;;15.90;99.90;;;;;;5074855;28;20455;-70
2022/10/02 08:19:04;;;;;;;6.20;4.93;;;15.80;99.90;;;;;;5074489;28;20189;-70
2022/10/02 08:21:35;;;;;;;7.63;5.57;;;15.70;99.90;;;;;;5071732;28;20422;-70
2022/10/02 08:24:11;;;;;;;8.70;7.80;;;15.70;99.90;;;;;;5074364;28;20804;-70
2022/10/02 08:26:46;;;;;;;6.50;3.80;;;15.80;99.90;;;;;;5074082;28;20440;-70
2022/10/02 08:29:48;;;;;;;7.73;4.63;;;15.80;99.90;;;;;;5074419;28;20825;-70
2022/10/02 08:32:13;;;;;;;5.13;4.37;;;15.90;99.90;;;;;;5074040;28;20976;-70
2022/10/02 08:34:40;;;;;;;8.90;5.97;;;15.90;99.90;;;;;;5073042;28;20410;-69
2022/10/02 08:37:28;;;;;;;6.87;4.20;;;15.70;99.90;;;;;;5072716;28;20502;-70
2022/10/02 08:40:34;;;;;;;7.10;5.03;;;15.60;99.90;;;;;;5073129;28;20391;-70
2022/10/02 08:43:16;;;;;;;9.70;4.70;;;15.90;99.90;;;;;;5052871;28;20411;-71
2022/10/02 08:46:01;;;;;;;12.20;6.33;;;16.20;99.90;;;;;;5073553;28;20459;-70
2022/10/02 08:48:55;;;;;;;5.43;3.67;;;16.20;99.90;;;;;;5073089;28;20972;-70
2022/10/02 08:51:24;;;;;;;5.97;4.00;;;16.40;99.90;;;;;;5067048;28;20478;-70
2022/10/02 08:54:14;;;;;;;7.33;4.10;;;16.70;99.90;;;;;;5073820;28;20451;-70
2022/10/02 08:56:53;;;;;;;6.13;4.57;;;17.00;99.90;;;;;;5073828;28;20459;-70
2022/10/02 08:59:51;;;;;;;6.90;3.90;;;17.00;99.90;;;;;;5073296;28;20435;-70
2022/10/02 09:02:55;;;;;;;9.30;4.20;;;17.20;99.90;;;;;;5073533;28;20750;-70
2022/10/02 09:05:47;;;;;;;7.50;3.90;;;17.20;99.90;;;;;;5073701;28;20518;-70
2022/10/02 09:08:50;;;;;;;5.77;3.43;;;17.40;99.90;;;;;;5072935;28;20789;-72
2022/10/02 09:11:18;;;;;;;5.83;3.77;;;17.20;99.90;;;;;;5073725;28;20506;-72
2022/10/02 09:14:08;;;;;;;7.10;3.70;;;17.10;99.90;;;;;;5073553;28;20432;-71
2022/10/02 09:16:58;;;;;;;8.60;3.77;;;17.40;99.90;;;;;;5073238;28;20902;-71
2022/10/02 09:20:01;;;;;;;6.77;2.87;;;17.50;99.90;;;;;;5071944;28;20393;-71
2022/10/02 09:23:05;;;;;;;7.63;3.57;;;17.40;99.90;;;;;;5072723;28;20508;-71
2022/10/02 09:25:35;;;;;;;6.60;3.40;;;17.40;99.90;;;;;;5072887;28;20457;-71
2022/10/02 09:28:21;;;;;;;4.70;2.93;;;17.70;99.90;;;;;;5073198;28;20426;-71
2022/10/02 09:31:05;;;;;;;5.53;3.50;;;17.70;99.90;;;;;;5073372;28;20440;-71
2022/10/02 09:33:57;;;;;;;5.47;2.97;;;17.70;99.90;;;;;;5072961;28;20399;-71
2022/10/02 09:36:48;;;;;;;5.30;2.90;;;17.90;99.90;;;;;;5072584;28;20430;-71
2022/10/02 09:39:16;;;;;;;4.70;3.33;;;18.10;99.90;;;;;;5071716;28;20436;-71
2022/10/02 09:42:07;;;;;;;8.80;3.67;;;17.60;99.90;;;;;;5072817;28;20480;-69
2022/10/02 09:44:47;;;;;;;6.53;4.03;;;17.30;99.90;;;;;;5072258;28;20417;-70
2022/10/02 09:47:22;;;;;;;4.23;3.80;;;16.70;99.90;;;;;;5073109;28;20388;-70
2022/10/02 09:50:09;;;;;;;7.73;3.67;;;16.50;99.90;;;;;;5072577;28;20427;-71
2022/10/02 09:53:12;;;;;;;4.37;3.37;;;16.40;99.90;;;;;;5073229;28;20397;-71
2022/10/02 09:55:52;;;;;;;5.30;3.30;;;16.40;99.90;;;;;;5070646;28;20429;-70
2022/10/02 09:58:32;;;;;;;7.83;3.77;;;16.40;99.90;;;;;;5064039;28;20455;-71
2022/10/02 10:01:20;;;;;;;7.60;3.80;;;16.00;99.90;;;;;;5052507;28;20798;-71
2022/10/02 10:04:20;;;;;;;7.13;3.67;;;15.70;99.90;;;;;;5052867;28;20437;-70
2022/10/02 10:07:05;;;;;;;6.30;3.57;;;16.00;99.90;;;;;;5053259;28;20479;-70
2022/10/02 10:09:54;;;;;;;6.13;3.47;;;16.00;99.90;;;;;;5052517;28;20529;-70
2022/10/02 10:12:23;;;;;;;6.43;3.70;;;15.70;99.90;;;;;;5052547;28;20388;-70
2022/10/02 10:15:07;;;;;;;3.80;3.43;;;15.40;99.90;;;;;;5052403;28;20482;-70
2022/10/02 10:17:55;;;;;;;4.53;3.47;;;15.30;99.90;;;;;;5052685;28;20470;-70
2022/10/02 10:20:52;;;;;;;5.50;3.43;;;15.30;99.90;;;;;;5052808;28;20426;-71
2022/10/02 10:23:56;;;;;;;5.17;4.50;;;15.30;99.90;;;;;;5052899;28;20376;-71
2022/10/02 10:26:33;;;;;;;4.63;3.20;;;15.50;99.90;;;;;;5052819;28;20398;-71
2022/10/02 10:29:08;;;;;;;5.33;2.60;;;15.40;99.90;;;;;;5052203;28;20578;-72
2022/10/02 10:32:14;;;;;;;5.00;4.50;;;15.60;99.90;;;;;;5053354;28;20439;-70
2022/10/02 10:35:03;;;;;;;5.20;3.73;;;15.70;99.90;;;;;;5052760;28;20389;-71
2022/10/02 10:40:50;;;;;;;5.70;4.20;;;15.50;99.90;;;;;;5072868;28;20746;-70
2022/10/02 10:43:19;;;;;;;3.40;3.10;;;15.60;99.90;;;;;;5072730;28;20378;-69
2022/10/02 10:45:50;;;;;;;9.40;7.60;;;15.80;99.90;;;;;;5073365;28;20444;-70
2022/10/02 10:48:46;;;;;;;5.30;4.63;;;15.90;99.90;;;;;;5072624;28;20801;-71
2022/10/02 10:51:32;;;;;;;5.53;3.60;;;16.10;99.90;;;;;;5067160;28;20818;-71
2022/10/02 10:54:23;;;;;;;3.30;3.00;;;16.20;99.90;;;;;;5071960;28;20497;-71
2022/10/02 10:57:00;;;;;;;3.77;2.90;;;16.10;99.90;;;;;;5072566;28;20470;-70
2022/10/02 10:59:42;;;;;;;3.33;2.20;;;15.90;99.90;;;;;;5072245;28;20394;-71
2022/10/02 11:02:12;;;;;;;3.20;1.80;;;15.70;99.90;;;;;;5073039;28;20403;-71
2022/10/02 11:04:57;;;;;;;2.17;1.70;;;15.70;99.90;;;;;;5076079;28;20765;-72
2022/10/02 11:07:25;;;;;;;2.10;1.80;;;15.60;99.90;;;;;;5075626;28;20843;-71
2022/10/02 11:10:00;;;;;;;2.00;1.80;;;15.40;99.90;;;;;;5074601;28;20430;-71
2022/10/02 11:12:38;;;;;;;3.27;2.30;;;15.60;99.90;;;;;;5075913;28;20387;-71
2022/10/02 11:15:16;;;;;;;2.57;1.80;;;15.90;99.90;;;;;;5076199;28;20396;-70
2022/10/02 11:18:00;;;;;;;2.87;2.00;;;15.80;99.90;;;;;;5075797;28;20412;-71
2022/10/02 11:20:39;;;;;;;3.60;2.40;;;15.70;99.90;;;;;;5074603;28;20411;-72
2022/10/02 11:23:07;;;;;;;2.70;1.93;;;15.90;99.90;;;;;;5075350;28;20393;-71
2022/10/02 11:25:55;;;;;;;2.07;1.80;;;15.80;99.90;;;;;;5075029;28;20398;-70
2022/10/02 11:28:48;;;;;;;1.83;1.53;;;15.70;99.90;;;;;;5075309;28;20434;-72
2022/10/02 11:31:33;;;;;;;2.73;1.97;;;15.50;99.90;;;;;;5075450;28;20835;-72
2022/10/02 11:34:34;;;;;;;2.30;2.10;;;15.40;99.90;;;;;;5075624;28;20380;-72
2022/10/02 11:37:09;;;;;;;1.80;1.70;;;15.60;99.90;;;;;;5075223;28;20866;-71
2022/10/02 11:39:56;;;;;;;2.30;1.90;;;15.60;99.90;;;;;;5074473;28;20414;-70
2022/10/02 11:42:40;;;;;;;4.20;3.80;;;15.70;99.90;;;;;;5072965;28;20438;-71
2022/10/02 11:45:07;;;;;;;3.20;2.90;;;15.90;99.90;;;;;;5055182;28;20878;-70
2022/10/02 11:47:35;;;;;;;1.30;1.03;;;15.80;99.90;;;;;;5054673;28;20432;-71
2022/10/02 11:50:16;;;;;;;1.90;1.70;;;15.60;99.90;;;;;;5071453;28;20434;-70
2022/10/02 11:53:19;;;;;;;2.03;1.83;;;15.40;99.90;;;;;;5065105;28;20418;-70
2022/10/02 11:55:49;;;;;;;2.13;1.17;;;15.50;99.90;;;;;;5064765;28;20801;-71
2022/10/02 11:58:52;;;;;;;1.27;0.60;;;15.50;99.90;;;;;;5065808;28;20445;-73
2022/10/02 12:01:51;;;;;;;1.00;0.70;;;15.30;99.90;;;;;;5065548;28;20409;-72
2022/10/02 12:04:30;;;;;;;0.80;0.70;;;15.30;99.90;;;;;;5065644;28;20413;-72
2022/10/02 12:07:10;;;;;;;0.93;0.83;;;15.30;99.90;;;;;;5065440;28;20981;-70
2022/10/02 12:09:53;;;;;;;2.30;1.77;;;15.40;99.90;;;;;;5065086;28;20888;-72
2022/10/02 12:12:40;;;;;;;3.43;2.17;;;15.80;99.90;;;;;;5065533;28;20411;-72
2022/10/02 12:15:15;;;;;;;1.50;1.40;;;16.00;99.90;;;;;;5064045;28;20427;-70
2022/10/02 12:17:56;;;;;;;0.90;0.80;;;16.10;99.90;;;;;;5064991;28;20533;-70
2022/10/02 12:27:06;;;;;;;2.13;1.87;;;16.40;99.90;;;;;;5065098;28;20390;-70
2022/10/02 12:29:43;;;;;;;0.93;0.83;;;16.40;99.90;;;;;;5064800;28;20484;-70
2022/10/02 12:32:37;;;;;;;1.70;0.73;;;16.20;99.90;;;;;;5064972;28;20446;-73
2022/10/02 12:35:05;;;;;;;0.70;0.60;;;15.90;99.90;;;;;;5064777;28;20408;-70
2022/10/02 12:37:57;;;;;;;2.50;0.80;;;15.80;99.90;;;;;;5063782;28;20453;-71
2022/10/02 12:40:40;;;;;;;1.50;0.70;;;15.70;99.90;;;;;;5054205;28;20582;-70
2022/10/02 12:43:43;;;;;;;2.57;1.20;;;15.50;99.90;;;;;;5074073;28;20771;-71
2022/10/02 12:46:44;;;;;;;2.20;1.80;;;15.70;99.90;;;;;;5074072;28;20410;-71
2022/10/02 12:49:44;;;;;;;1.20;0.97;;;15.80;99.90;;;;;;5073945;28;20428;-70
2022/10/02 12:52:28;;;;;;;1.20;1.10;;;15.70;99.90;;;;;;5074121;28;20521;-70
2022/10/02 12:55:09;;;;;;;1.17;1.07;;;15.70;99.90;;;;;;5073154;28;20396;-70
2022/10/02 12:57:54;;;;;;;1.67;1.37;;;15.50;99.90;;;;;;5073867;28;20457;-71
2022/10/02 13:00:31;;;;;;;1.40;1.30;;;15.70;99.90;;;;;;5074005;28;20943;-71
2022/10/02 13:03:30;;;;;;;1.70;1.17;;;15.80;99.90;;;;;;5071633;28;20933;-71
2022/10/02 13:06:22;;;;;;;1.73;1.63;;;15.80;99.90;;;;;;5073227;28;20404;-71
2022/10/02 13:09:02;;;;;;;1.73;1.00;;;15.70;99.90;;;;;;5073104;28;20434;-71
2022/10/02 13:11:51;;;;;;;1.30;0.97;;;15.50;99.90;;;;;;5073441;28;20435;-71
2022/10/02 13:14:42;;;;;;;1.77;1.37;;;15.50;99.90;;;;;;5073527;28;20423;-71
2022/10/02 13:17:29;;;;;;;1.70;1.23;;;15.60;99.90;;;;;;5073182;28;20512;-71
2022/10/02 13:20:11;;;;;;;3.00;1.00;;;15.70;99.90;;;;;;5073167;28;20749;-70
2022/10/02 13:22:57;;;;;;;2.23;1.90;;;15.60;99.90;;;;;;5073459;28;20437;-71
2022/10/02 13:25:33;;;;;;;1.10;1.00;;;15.70;99.90;;;;;;5072717;28;20471;-71
2022/10/02 13:28:12;;;;;;;1.10;1.00;;;15.40;99.90;;;;;;5072813;28;20835;-71
2022/10/02 13:31:34;;;;;;;1.27;0.97;;;15.30;99.90;;;;;;5072883;28;20530;-69
2022/10/02 13:33:59;;;;;;;2.97;1.50;;;15.30;99.90;;;;;;5010718;28;20910;-71
2022/10/02 13:36:49;;;;;;;1.20;1.07;;;15.70;99.90;;;;;;5045293;28;20421;-71
2022/10/02 13:39:35;;;;;;;1.43;1.00;;;15.80;99.90;;;;;;5066960;28;20185;-71
2022/10/02 13:42:09;;;;;;;1.17;1.07;;;15.90;99.90;;;;;;5072742;28;20872;-70
2022/10/02 13:45:04;;;;;;;2.27;0.67;;;15.50;99.90;;;;;;5072138;28;20419;-72
2022/10/02 13:47:38;;;;;;;0.80;0.73;;;15.30;99.90;;;;;;5044431;28;20438;-71
2022/10/02 13:50:14;;;;;;;1.20;0.73;;;15.10;99.90;;;;;;5072450;28;20455;-72
2022/10/02 13:52:55;;;;;;;1.73;0.83;;;15.20;99.90;;;;;;5070959;28;20395;-71
2022/10/02 13:55:30;;;;;;;0.90;0.70;;;15.20;99.90;;;;;;5073303;28;20824;-69
2022/10/02 13:58:23;;;;;;;1.23;1.00;;;15.00;99.90;;;;;;5072433;28;20419;-71
2022/10/02 14:01:00;;;;;;;0.90;0.70;;;14.90;99.90;;;;;;5072306;28;20419;-71
2022/10/02 14:03:56;;;;;;;1.43;0.70;;;14.90;99.90;;;;;;5073085;28;20750;-72
2022/10/02 14:07:12;;;;;;;0.90;0.80;;;15.10;99.90;;;;;;5073154;28;20485;-68
2022/10/02 14:10:08;;;;;;;0.90;0.70;;;15.20;99.90;;;;;;5046063;28;20425;-71
2022/10/02 14:12:47;;;;;;;1.63;0.90;;;15.30;99.90;;;;;;5073657;28;20887;-70